Ostrander, Minnesota
Current Conditions -  °F | °C
As of 7:36 PM on Monday 24 Nov 2014 (Local Time) from KFKA Reporting Station
Light Snow Light Snow  
Wind Chill: -2°   Ceiling: 800
Heat Index: 15°   Visibility: 1.2mi
Dew Point: 11°   Wind: 18mph
Humidity: 87%   Direction: 300°WNW
Pressure: 29.72"   Gusts: NA
Location:  43.61°N, 92.43°W
Report Text: KFKA 250136Z AUTO 30016KT 1 1/4SM -SN BKN008 OVC018 M10/M11 A2972 RMK AO2 T10961114
Loading
Personal Weather Stations






























Interactive Weather Map New forecast layout! Learn more

10-Day Weather Forecast

Advertisements
Track Severe Weather on mobile